sensor_id;sensor_type;location;lat;lon;timestamp;P1;durP1;ratioP1;P2;durP2;ratioP2
75261;SDS011;63859;51.064;4.580;2024-01-11T00:00:36;38.07;;;16.83;;
75261;SDS011;63859;51.064;4.580;2024-01-11T00:03:02;40.80;;;18.53;;
75261;SDS011;63859;51.064;4.580;2024-01-11T00:05:28;37.57;;;16.80;;
75261;SDS011;63859;51.064;4.580;2024-01-11T00:07:54;37.97;;;17.63;;
75261;SDS011;63859;51.064;4.580;2024-01-11T00:10:20;35.97;;;17.67;;
75261;SDS011;63859;51.064;4.580;2024-01-11T00:12:46;38.90;;;17.17;;
75261;SDS011;63859;51.064;4.580;2024-01-11T00:15:12;38.37;;;17.67;;
75261;SDS011;63859;51.064;4.580;2024-01-11T00:17:38;40.87;;;17.47;;
75261;SDS011;63859;51.064;4.580;2024-01-11T00:20:04;40.33;;;17.73;;
75261;SDS011;63859;51.064;4.580;2024-01-11T00:22:30;39.67;;;17.10;;
75261;SDS011;63859;51.064;4.580;2024-01-11T00:24:57;37.80;;;17.00;;
75261;SDS011;63859;51.064;4.580;2024-01-11T00:27:22;37.27;;;16.80;;
75261;SDS011;63859;51.064;4.580;2024-01-11T00:29:48;42.97;;;17.43;;
75261;SDS011;63859;51.064;4.580;2024-01-11T00:32:14;37.17;;;17.77;;
75261;SDS011;63859;51.064;4.580;2024-01-11T00:34:39;35.13;;;16.60;;
75261;SDS011;63859;51.064;4.580;2024-01-11T00:37:05;42.00;;;17.10;;
75261;SDS011;63859;51.064;4.580;2024-01-11T00:39:31;40.47;;;17.27;;
75261;SDS011;63859;51.064;4.580;2024-01-11T00:41:57;35.47;;;16.20;;
75261;SDS011;63859;51.064;4.580;2024-01-11T00:44:22;38.33;;;17.17;;
75261;SDS011;63859;51.064;4.580;2024-01-11T00:46:48;37.30;;;16.33;;
75261;SDS011;63859;51.064;4.580;2024-01-11T00:49:13;34.97;;;16.53;;
75261;SDS011;63859;51.064;4.580;2024-01-11T00:51:39;36.77;;;15.90;;
75261;SDS011;63859;51.064;4.580;2024-01-11T00:54:05;36.77;;;16.37;;
75261;SDS011;63859;51.064;4.580;2024-01-11T00:56:30;34.07;;;16.50;;
75261;SDS011;63859;51.064;4.580;2024-01-11T00:58:56;37.80;;;17.03;;
75261;SDS011;63859;51.064;4.580;2024-01-11T01:01:22;35.87;;;16.87;;
75261;SDS011;63859;51.064;4.580;2024-01-11T01:03:48;35.53;;;16.40;;
75261;SDS011;63859;51.064;4.580;2024-01-11T01:06:13;39.40;;;16.80;;
75261;SDS011;63859;51.064;4.580;2024-01-11T01:08:39;36.30;;;16.93;;
75261;SDS011;63859;51.064;4.580;2024-01-11T01:11:05;34.47;;;16.30;;
75261;SDS011;63859;51.064;4.580;2024-01-11T01:13:30;39.77;;;16.87;;
75261;SDS011;63859;51.064;4.580;2024-01-11T01:15:56;35.43;;;16.37;;
75261;SDS011;63859;51.064;4.580;2024-01-11T01:18:22;35.97;;;16.97;;
75261;SDS011;63859;51.064;4.580;2024-01-11T01:20:47;36.20;;;16.57;;
75261;SDS011;63859;51.064;4.580;2024-01-11T01:23:13;39.30;;;16.73;;
75261;SDS011;63859;51.064;4.580;2024-01-11T01:25:39;36.87;;;16.10;;
75261;SDS011;63859;51.064;4.580;2024-01-11T01:28:04;35.43;;;16.33;;
75261;SDS011;63859;51.064;4.580;2024-01-11T01:30:30;38.73;;;16.67;;
75261;SDS011;63859;51.064;4.580;2024-01-11T01:32:56;32.27;;;15.80;;
75261;SDS011;63859;51.064;4.580;2024-01-11T01:35:21;35.73;;;16.47;;
75261;SDS011;63859;51.064;4.580;2024-01-11T01:37:47;39.93;;;17.07;;
75261;SDS011;63859;51.064;4.580;2024-01-11T01:40:13;39.63;;;17.30;;
75261;SDS011;63859;51.064;4.580;2024-01-11T01:42:42;42.83;;;16.50;;
75261;SDS011;63859;51.064;4.580;2024-01-11T01:45:12;33.67;;;16.47;;
75261;SDS011;63859;51.064;4.580;2024-01-11T01:47:40;38.90;;;16.37;;
75261;SDS011;63859;51.064;4.580;2024-01-11T01:50:07;34.37;;;16.47;;
75261;SDS011;63859;51.064;4.580;2024-01-11T01:52:34;34.17;;;17.37;;
75261;SDS011;63859;51.064;4.580;2024-01-11T01:55:02;37.63;;;16.37;;
75261;SDS011;63859;51.064;4.580;2024-01-11T01:57:29;42.63;;;17.17;;
75261;SDS011;63859;51.064;4.580;2024-01-11T01:59:57;35.87;;;17.60;;
75261;SDS011;63859;51.064;4.580;2024-01-11T02:02:23;38.10;;;17.00;;
75261;SDS011;63859;51.064;4.580;2024-01-11T02:04:50;38.47;;;17.10;;
75261;SDS011;63859;51.064;4.580;2024-01-11T02:07:16;37.43;;;15.90;;
75261;SDS011;63859;51.064;4.580;2024-01-11T02:09:43;35.87;;;16.83;;
75261;SDS011;63859;51.064;4.580;2024-01-11T02:12:10;38.73;;;16.23;;
75261;SDS011;63859;51.064;4.580;2024-01-11T02:14:38;39.17;;;16.70;;
75261;SDS011;63859;51.064;4.580;2024-01-11T02:17:03;43.43;;;16.27;;
75261;SDS011;63859;51.064;4.580;2024-01-11T02:19:30;38.03;;;16.53;;
75261;SDS011;63859;51.064;4.580;2024-01-11T02:21:55;35.97;;;15.77;;
75261;SDS011;63859;51.064;4.580;2024-01-11T02:24:25;33.27;;;16.53;;
75261;SDS011;63859;51.064;4.580;2024-01-11T02:26:58;36.73;;;16.50;;
75261;SDS011;63859;51.064;4.580;2024-01-11T02:29:25;34.30;;;16.10;;
75261;SDS011;63859;51.064;4.580;2024-01-11T02:31:51;38.80;;;17.40;;
75261;SDS011;63859;51.064;4.580;2024-01-11T02:34:17;35.73;;;15.60;;
75261;SDS011;63859;51.064;4.580;2024-01-11T02:36:43;38.30;;;17.00;;
75261;SDS011;63859;51.064;4.580;2024-01-11T02:39:09;37.73;;;16.73;;
75261;SDS011;63859;51.064;4.580;2024-01-11T02:41:36;41.80;;;17.87;;
75261;SDS011;63859;51.064;4.580;2024-01-11T02:44:02;38.13;;;16.70;;
75261;SDS011;63859;51.064;4.580;2024-01-11T02:46:28;39.07;;;17.50;;
75261;SDS011;63859;51.064;4.580;2024-01-11T02:48:55;38.80;;;17.00;;
75261;SDS011;63859;51.064;4.580;2024-01-11T02:51:20;38.40;;;17.43;;
75261;SDS011;63859;51.064;4.580;2024-01-11T02:53:46;39.50;;;17.20;;
75261;SDS011;63859;51.064;4.580;2024-01-11T02:56:12;36.07;;;17.47;;
75261;SDS011;63859;51.064;4.580;2024-01-11T02:58:37;37.53;;;16.93;;
75261;SDS011;63859;51.064;4.580;2024-01-11T03:01:03;41.40;;;17.00;;
75261;SDS011;63859;51.064;4.580;2024-01-11T03:03:29;35.97;;;16.87;;
75261;SDS011;63859;51.064;4.580;2024-01-11T03:05:54;39.03;;;16.90;;
75261;SDS011;63859;51.064;4.580;2024-01-11T03:08:20;38.43;;;17.67;;
75261;SDS011;63859;51.064;4.580;2024-01-11T03:10:46;39.03;;;17.83;;
75261;SDS011;63859;51.064;4.580;2024-01-11T03:13:11;37.57;;;17.00;;
75261;SDS011;63859;51.064;4.580;2024-01-11T03:15:37;37.73;;;18.30;;
75261;SDS011;63859;51.064;4.580;2024-01-11T03:18:03;40.17;;;17.47;;
75261;SDS011;63859;51.064;4.580;2024-01-11T03:20:29;43.27;;;17.20;;
75261;SDS011;63859;51.064;4.580;2024-01-11T03:22:55;40.47;;;16.97;;
75261;SDS011;63859;51.064;4.580;2024-01-11T03:25:20;37.67;;;17.57;;
75261;SDS011;63859;51.064;4.580;2024-01-11T03:27:46;43.07;;;18.20;;
75261;SDS011;63859;51.064;4.580;2024-01-11T03:30:12;37.27;;;17.33;;
75261;SDS011;63859;51.064;4.580;2024-01-11T03:32:38;39.57;;;18.40;;
75261;SDS011;63859;51.064;4.580;2024-01-11T03:35:07;39.97;;;17.33;;
75261;SDS011;63859;51.064;4.580;2024-01-11T03:37:33;36.90;;;16.50;;
75261;SDS011;63859;51.064;4.580;2024-01-11T03:40:00;36.97;;;17.83;;
75261;SDS011;63859;51.064;4.580;2024-01-11T03:42:26;39.93;;;18.30;;
75261;SDS011;63859;51.064;4.580;2024-01-11T03:44:51;39.37;;;18.97;;
75261;SDS011;63859;51.064;4.580;2024-01-11T03:47:17;40.03;;;18.43;;
75261;SDS011;63859;51.064;4.580;2024-01-11T03:49:43;40.93;;;18.57;;
75261;SDS011;63859;51.064;4.580;2024-01-11T03:52:09;38.37;;;18.23;;
75261;SDS011;63859;51.064;4.580;2024-01-11T03:54:35;41.10;;;17.63;;
75261;SDS011;63859;51.064;4.580;2024-01-11T03:57:01;42.73;;;19.07;;
75261;SDS011;63859;51.064;4.580;2024-01-11T03:59:26;37.23;;;17.97;;
75261;SDS011;63859;51.064;4.580;2024-01-11T04:01:52;43.33;;;18.30;;
75261;SDS011;63859;51.064;4.580;2024-01-11T04:04:18;38.67;;;19.03;;
75261;SDS011;63859;51.064;4.580;2024-01-11T04:06:44;41.97;;;17.47;;
75261;SDS011;63859;51.064;4.580;2024-01-11T04:09:10;40.60;;;18.07;;
75261;SDS011;63859;51.064;4.580;2024-01-11T04:11:36;40.70;;;18.13;;
75261;SDS011;63859;51.064;4.580;2024-01-11T04:14:02;43.10;;;19.97;;
75261;SDS011;63859;51.064;4.580;2024-01-11T04:16:28;42.13;;;17.60;;
75261;SDS011;63859;51.064;4.580;2024-01-11T04:18:54;43.57;;;18.97;;
75261;SDS011;63859;51.064;4.580;2024-01-11T04:21:23;45.37;;;19.23;;
75261;SDS011;63859;51.064;4.580;2024-01-11T04:23:55;44.20;;;18.77;;
75261;SDS011;63859;51.064;4.580;2024-01-11T04:26:22;42.50;;;18.60;;
75261;SDS011;63859;51.064;4.580;2024-01-11T04:28:48;43.30;;;18.90;;
75261;SDS011;63859;51.064;4.580;2024-01-11T04:31:14;38.47;;;17.77;;
75261;SDS011;63859;51.064;4.580;2024-01-11T04:33:43;44.17;;;20.27;;
75261;SDS011;63859;51.064;4.580;2024-01-11T04:36:10;43.30;;;18.23;;
75261;SDS011;63859;51.064;4.580;2024-01-11T04:38:36;46.73;;;20.60;;
75261;SDS011;63859;51.064;4.580;2024-01-11T04:41:08;44.47;;;18.57;;
75261;SDS011;63859;51.064;4.580;2024-01-11T04:43:38;43.13;;;18.97;;
75261;SDS011;63859;51.064;4.580;2024-01-11T04:46:18;40.70;;;19.03;;
75261;SDS011;63859;51.064;4.580;2024-01-11T04:48:45;41.03;;;18.53;;
75261;SDS011;63859;51.064;4.580;2024-01-11T04:51:12;46.40;;;19.83;;
75261;SDS011;63859;51.064;4.580;2024-01-11T04:53:39;43.73;;;19.47;;
75261;SDS011;63859;51.064;4.580;2024-01-11T04:56:08;44.73;;;18.90;;
75261;SDS011;63859;51.064;4.580;2024-01-11T04:58:35;39.47;;;18.87;;
75261;SDS011;63859;51.064;4.580;2024-01-11T05:01:03;50.50;;;19.90;;
75261;SDS011;63859;51.064;4.580;2024-01-11T05:03:30;42.03;;;19.60;;
75261;SDS011;63859;51.064;4.580;2024-01-11T05:05:56;42.80;;;18.30;;
75261;SDS011;63859;51.064;4.580;2024-01-11T05:08:22;44.60;;;18.97;;
75261;SDS011;63859;51.064;4.580;2024-01-11T05:10:49;45.27;;;19.73;;
75261;SDS011;63859;51.064;4.580;2024-01-11T05:13:15;39.90;;;18.90;;
75261;SDS011;63859;51.064;4.580;2024-01-11T05:15:41;42.57;;;18.90;;
75261;SDS011;63859;51.064;4.580;2024-01-11T05:18:06;44.43;;;19.77;;
75261;SDS011;63859;51.064;4.580;2024-01-11T05:20:32;45.37;;;20.43;;
75261;SDS011;63859;51.064;4.580;2024-01-11T05:22:58;40.83;;;18.20;;
75261;SDS011;63859;51.064;4.580;2024-01-11T05:25:25;42.83;;;19.20;;
75261;SDS011;63859;51.064;4.580;2024-01-11T05:27:51;43.03;;;20.13;;
75261;SDS011;63859;51.064;4.580;2024-01-11T05:30:17;49.57;;;19.67;;
75261;SDS011;63859;51.064;4.580;2024-01-11T05:32:43;42.17;;;19.23;;
75261;SDS011;63859;51.064;4.580;2024-01-11T05:35:09;43.13;;;19.70;;
75261;SDS011;63859;51.064;4.580;2024-01-11T05:37:35;52.70;;;19.70;;
75261;SDS011;63859;51.064;4.580;2024-01-11T05:40:01;43.07;;;20.13;;
75261;SDS011;63859;51.064;4.580;2024-01-11T05:42:27;41.00;;;18.83;;
75261;SDS011;63859;51.064;4.580;2024-01-11T05:44:52;45.23;;;19.23;;
75261;SDS011;63859;51.064;4.580;2024-01-11T05:47:18;37.33;;;17.57;;
75261;SDS011;63859;51.064;4.580;2024-01-11T05:49:44;42.67;;;17.77;;
75261;SDS011;63859;51.064;4.580;2024-01-11T05:52:10;46.70;;;18.43;;
75261;SDS011;63859;51.064;4.580;2024-01-11T05:54:36;45.57;;;19.87;;
75261;SDS011;63859;51.064;4.580;2024-01-11T05:57:02;43.87;;;18.87;;
75261;SDS011;63859;51.064;4.580;2024-01-11T05:59:27;45.90;;;20.23;;
75261;SDS011;63859;51.064;4.580;2024-01-11T06:01:53;42.30;;;19.50;;
75261;SDS011;63859;51.064;4.580;2024-01-11T06:04:19;46.90;;;19.47;;
75261;SDS011;63859;51.064;4.580;2024-01-11T06:06:44;45.27;;;19.57;;
75261;SDS011;63859;51.064;4.580;2024-01-11T06:09:10;40.53;;;18.90;;
75261;SDS011;63859;51.064;4.580;2024-01-11T06:11:36;46.07;;;19.23;;
75261;SDS011;63859;51.064;4.580;2024-01-11T06:14:02;39.07;;;18.27;;
75261;SDS011;63859;51.064;4.580;2024-01-11T06:16:28;43.53;;;19.80;;
75261;SDS011;63859;51.064;4.580;2024-01-11T06:18:54;41.90;;;19.43;;
75261;SDS011;63859;51.064;4.580;2024-01-11T06:21:19;44.07;;;19.37;;
75261;SDS011;63859;51.064;4.580;2024-01-11T06:23:45;38.63;;;19.20;;
75261;SDS011;63859;51.064;4.580;2024-01-11T06:26:11;52.60;;;21.67;;
75261;SDS011;63859;51.064;4.580;2024-01-11T06:28:37;39.00;;;18.50;;
75261;SDS011;63859;51.064;4.580;2024-01-11T06:31:02;43.33;;;20.30;;
75261;SDS011;63859;51.064;4.580;2024-01-11T06:33:28;44.63;;;19.77;;
75261;SDS011;63859;51.064;4.580;2024-01-11T06:35:55;48.77;;;20.73;;
75261;SDS011;63859;51.064;4.580;2024-01-11T06:38:21;41.17;;;19.80;;
75261;SDS011;63859;51.064;4.580;2024-01-11T06:40:47;47.10;;;19.90;;
75261;SDS011;63859;51.064;4.580;2024-01-11T06:43:14;45.93;;;19.57;;
75261;SDS011;63859;51.064;4.580;2024-01-11T06:45:43;50.50;;;20.07;;
75261;SDS011;63859;51.064;4.580;2024-01-11T06:48:08;47.80;;;21.70;;
75261;SDS011;63859;51.064;4.580;2024-01-11T06:50:34;41.63;;;19.50;;
75261;SDS011;63859;51.064;4.580;2024-01-11T06:53:00;43.90;;;20.93;;
75261;SDS011;63859;51.064;4.580;2024-01-11T06:55:26;41.07;;;19.53;;
75261;SDS011;63859;51.064;4.580;2024-01-11T06:57:52;45.43;;;20.97;;
75261;SDS011;63859;51.064;4.580;2024-01-11T07:00:18;45.50;;;20.60;;
75261;SDS011;63859;51.064;4.580;2024-01-11T07:02:44;44.03;;;20.20;;
75261;SDS011;63859;51.064;4.580;2024-01-11T07:05:10;51.93;;;21.30;;
75261;SDS011;63859;51.064;4.580;2024-01-11T07:07:35;47.37;;;20.07;;
75261;SDS011;63859;51.064;4.580;2024-01-11T07:10:01;42.30;;;20.97;;
75261;SDS011;63859;51.064;4.580;2024-01-11T07:12:27;47.40;;;20.83;;
75261;SDS011;63859;51.064;4.580;2024-01-11T07:14:52;49.00;;;20.73;;
75261;SDS011;63859;51.064;4.580;2024-01-11T07:17:18;45.17;;;20.07;;
75261;SDS011;63859;51.064;4.580;2024-01-11T07:19:44;47.93;;;20.37;;
75261;SDS011;63859;51.064;4.580;2024-01-11T07:22:09;41.73;;;19.17;;
75261;SDS011;63859;51.064;4.580;2024-01-11T07:24:35;40.63;;;19.43;;
75261;SDS011;63859;51.064;4.580;2024-01-11T07:27:05;47.07;;;20.43;;
75261;SDS011;63859;51.064;4.580;2024-01-11T07:29:31;47.10;;;20.13;;
75261;SDS011;63859;51.064;4.580;2024-01-11T07:32:00;51.33;;;21.23;;
75261;SDS011;63859;51.064;4.580;2024-01-11T07:34:26;40.50;;;20.10;;
75261;SDS011;63859;51.064;4.580;2024-01-11T07:36:52;42.93;;;20.13;;
75261;SDS011;63859;51.064;4.580;2024-01-11T07:39:18;44.87;;;19.70;;
75261;SDS011;63859;51.064;4.580;2024-01-11T07:41:44;46.43;;;19.20;;
75261;SDS011;63859;51.064;4.580;2024-01-11T07:44:10;46.27;;;19.60;;
75261;SDS011;63859;51.064;4.580;2024-01-11T07:46:36;46.23;;;21.23;;
75261;SDS011;63859;51.064;4.580;2024-01-11T07:49:02;50.07;;;22.07;;
75261;SDS011;63859;51.064;4.580;2024-01-11T07:51:28;44.33;;;20.90;;
75261;SDS011;63859;51.064;4.580;2024-01-11T07:53:54;46.83;;;19.40;;
75261;SDS011;63859;51.064;4.580;2024-01-11T07:56:20;46.80;;;19.60;;
75261;SDS011;63859;51.064;4.580;2024-01-11T07:58:45;43.40;;;20.03;;
75261;SDS011;63859;51.064;4.580;2024-01-11T08:01:11;40.27;;;19.07;;
75261;SDS011;63859;51.064;4.580;2024-01-11T08:03:37;46.40;;;20.50;;
75261;SDS011;63859;51.064;4.580;2024-01-11T08:06:03;44.90;;;19.53;;
75261;SDS011;63859;51.064;4.580;2024-01-11T08:08:32;40.87;;;18.43;;
75261;SDS011;63859;51.064;4.580;2024-01-11T08:10:58;50.47;;;21.13;;
75261;SDS011;63859;51.064;4.580;2024-01-11T08:13:24;43.70;;;19.47;;
75261;SDS011;63859;51.064;4.580;2024-01-11T08:15:49;45.77;;;19.87;;
75261;SDS011;63859;51.064;4.580;2024-01-11T08:18:17;40.17;;;18.43;;
75261;SDS011;63859;51.064;4.580;2024-01-11T08:20:43;44.20;;;19.50;;
75261;SDS011;63859;51.064;4.580;2024-01-11T08:23:09;41.70;;;20.40;;
75261;SDS011;63859;51.064;4.580;2024-01-11T08:25:35;48.27;;;19.70;;
75261;SDS011;63859;51.064;4.580;2024-01-11T08:28:01;43.53;;;19.90;;
75261;SDS011;63859;51.064;4.580;2024-01-11T08:30:28;45.40;;;19.37;;
75261;SDS011;63859;51.064;4.580;2024-01-11T08:32:53;45.70;;;19.87;;
75261;SDS011;63859;51.064;4.580;2024-01-11T08:35:20;48.07;;;20.63;;
75261;SDS011;63859;51.064;4.580;2024-01-11T08:37:46;39.80;;;18.17;;
75261;SDS011;63859;51.064;4.580;2024-01-11T08:40:12;37.33;;;19.10;;
75261;SDS011;63859;51.064;4.580;2024-01-11T08:42:38;46.90;;;20.67;;
75261;SDS011;63859;51.064;4.580;2024-01-11T08:45:06;45.70;;;19.93;;
75261;SDS011;63859;51.064;4.580;2024-01-11T08:47:35;44.07;;;20.90;;
75261;SDS011;63859;51.064;4.580;2024-01-11T08:50:03;45.83;;;19.83;;
75261;SDS011;63859;51.064;4.580;2024-01-11T08:52:31;48.87;;;20.03;;
75261;SDS011;63859;51.064;4.580;2024-01-11T08:54:57;39.93;;;19.27;;
75261;SDS011;63859;51.064;4.580;2024-01-11T08:57:23;47.10;;;19.17;;
75261;SDS011;63859;51.064;4.580;2024-01-11T08:59:48;41.80;;;19.20;;
75261;SDS011;63859;51.064;4.580;2024-01-11T09:02:14;46.27;;;19.37;;
75261;SDS011;63859;51.064;4.580;2024-01-11T09:04:40;40.53;;;19.00;;
75261;SDS011;63859;51.064;4.580;2024-01-11T09:07:06;41.63;;;18.90;;
75261;SDS011;63859;51.064;4.580;2024-01-11T09:09:31;46.40;;;19.50;;
75261;SDS011;63859;51.064;4.580;2024-01-11T09:11:57;44.73;;;20.40;;
75261;SDS011;63859;51.064;4.580;2024-01-11T09:14:22;46.90;;;19.43;;
75261;SDS011;63859;51.064;4.580;2024-01-11T09:16:48;42.17;;;19.27;;
75261;SDS011;63859;51.064;4.580;2024-01-11T09:19:15;44.03;;;19.27;;
75261;SDS011;63859;51.064;4.580;2024-01-11T09:21:41;44.60;;;19.70;;
75261;SDS011;63859;51.064;4.580;2024-01-11T09:24:07;39.30;;;19.23;;
75261;SDS011;63859;51.064;4.580;2024-01-11T09:26:33;43.37;;;20.40;;
75261;SDS011;63859;51.064;4.580;2024-01-11T09:28:58;44.20;;;19.00;;
75261;SDS011;63859;51.064;4.580;2024-01-11T09:31:24;43.23;;;19.93;;
75261;SDS011;63859;51.064;4.580;2024-01-11T09:33:49;44.97;;;18.93;;
75261;SDS011;63859;51.064;4.580;2024-01-11T09:36:15;44.47;;;19.87;;
75261;SDS011;63859;51.064;4.580;2024-01-11T09:38:41;45.23;;;19.77;;
75261;SDS011;63859;51.064;4.580;2024-01-11T09:41:07;48.60;;;20.17;;
75261;SDS011;63859;51.064;4.580;2024-01-11T09:43:34;46.60;;;19.97;;
75261;SDS011;63859;51.064;4.580;2024-01-11T09:46:04;44.30;;;18.87;;
75261;SDS011;63859;51.064;4.580;2024-01-11T09:48:34;42.40;;;19.77;;
75261;SDS011;63859;51.064;4.580;2024-01-11T09:51:04;47.40;;;21.37;;
75261;SDS011;63859;51.064;4.580;2024-01-11T09:53:33;38.43;;;18.43;;
75261;SDS011;63859;51.064;4.580;2024-01-11T09:55:59;46.83;;;20.27;;
75261;SDS011;63859;51.064;4.580;2024-01-11T09:58:25;44.93;;;20.77;;
75261;SDS011;63859;51.064;4.580;2024-01-11T10:00:55;41.70;;;20.07;;
75261;SDS011;63859;51.064;4.580;2024-01-11T10:03:25;44.90;;;20.47;;
75261;SDS011;63859;51.064;4.580;2024-01-11T10:05:57;41.80;;;20.00;;
75261;SDS011;63859;51.064;4.580;2024-01-11T10:08:24;48.83;;;19.80;;
75261;SDS011;63859;51.064;4.580;2024-01-11T10:10:51;46.87;;;19.73;;
75261;SDS011;63859;51.064;4.580;2024-01-11T10:13:17;36.47;;;19.23;;
75261;SDS011;63859;51.064;4.580;2024-01-11T10:15:43;47.33;;;19.90;;
75261;SDS011;63859;51.064;4.580;2024-01-11T10:18:09;46.10;;;20.00;;
75261;SDS011;63859;51.064;4.580;2024-01-11T10:20:35;37.73;;;19.50;;
75261;SDS011;63859;51.064;4.580;2024-01-11T10:23:02;44.10;;;19.80;;
75261;SDS011;63859;51.064;4.580;2024-01-11T10:25:28;39.87;;;18.53;;
75261;SDS011;63859;51.064;4.580;2024-01-11T10:27:54;42.00;;;19.93;;
75261;SDS011;63859;51.064;4.580;2024-01-11T10:30:20;48.20;;;20.27;;
75261;SDS011;63859;51.064;4.580;2024-01-11T10:32:47;42.73;;;19.40;;
75261;SDS011;63859;51.064;4.580;2024-01-11T10:35:14;43.70;;;18.87;;
75261;SDS011;63859;51.064;4.580;2024-01-11T10:37:41;39.57;;;18.37;;
75261;SDS011;63859;51.064;4.580;2024-01-11T10:40:09;44.03;;;20.53;;
75261;SDS011;63859;51.064;4.580;2024-01-11T10:42:36;40.37;;;17.97;;
75261;SDS011;63859;51.064;4.580;2024-01-11T10:45:15;41.43;;;17.77;;
75261;SDS011;63859;51.064;4.580;2024-01-11T10:47:45;46.53;;;18.73;;
75261;SDS011;63859;51.064;4.580;2024-01-11T10:50:16;39.63;;;18.67;;
75261;SDS011;63859;51.064;4.580;2024-01-11T10:52:47;41.97;;;19.43;;
75261;SDS011;63859;51.064;4.580;2024-01-11T10:55:16;39.60;;;19.00;;
75261;SDS011;63859;51.064;4.580;2024-01-11T10:57:44;35.03;;;18.20;;
75261;SDS011;63859;51.064;4.580;2024-01-11T11:00:13;40.77;;;19.43;;
75261;SDS011;63859;51.064;4.580;2024-01-11T11:02:39;37.30;;;17.90;;
75261;SDS011;63859;51.064;4.580;2024-01-11T11:05:06;42.67;;;19.70;;
75261;SDS011;63859;51.064;4.580;2024-01-11T11:07:34;38.90;;;18.37;;
75261;SDS011;63859;51.064;4.580;2024-01-11T11:10:01;34.13;;;17.03;;
75261;SDS011;63859;51.064;4.580;2024-01-11T11:12:29;40.70;;;16.87;;
75261;SDS011;63859;51.064;4.580;2024-01-11T11:14:57;39.07;;;18.13;;
75261;SDS011;63859;51.064;4.580;2024-01-11T11:17:24;37.87;;;17.97;;
75261;SDS011;63859;51.064;4.580;2024-01-11T11:19:50;34.50;;;17.53;;
75261;SDS011;63859;51.064;4.580;2024-01-11T11:22:17;37.23;;;18.37;;
75261;SDS011;63859;51.064;4.580;2024-01-11T11:24:44;34.00;;;16.50;;
75261;SDS011;63859;51.064;4.580;2024-01-11T11:27:13;36.83;;;18.13;;
75261;SDS011;63859;51.064;4.580;2024-01-11T11:29:40;37.10;;;16.97;;
75261;SDS011;63859;51.064;4.580;2024-01-11T11:32:06;35.00;;;16.50;;
75261;SDS011;63859;51.064;4.580;2024-01-11T11:34:44;34.33;;;15.80;;
75261;SDS011;63859;51.064;4.580;2024-01-11T11:37:11;38.77;;;17.73;;
75261;SDS011;63859;51.064;4.580;2024-01-11T11:39:37;35.90;;;17.23;;
75261;SDS011;63859;51.064;4.580;2024-01-11T11:42:04;35.97;;;16.63;;
75261;SDS011;63859;51.064;4.580;2024-01-11T11:44:30;40.03;;;19.33;;
75261;SDS011;63859;51.064;4.580;2024-01-11T11:47:15;34.87;;;16.27;;
75261;SDS011;63859;51.064;4.580;2024-01-11T11:49:56;33.23;;;17.43;;
75261;SDS011;63859;51.064;4.580;2024-01-11T11:52:26;32.87;;;15.57;;
75261;SDS011;63859;51.064;4.580;2024-01-11T11:54:52;35.77;;;16.47;;
75261;SDS011;63859;51.064;4.580;2024-01-11T11:57:19;32.23;;;16.10;;
75261;SDS011;63859;51.064;4.580;2024-01-11T11:59:46;34.30;;;16.40;;
75261;SDS011;63859;51.064;4.580;2024-01-11T12:02:15;34.90;;;16.93;;
75261;SDS011;63859;51.064;4.580;2024-01-11T12:04:46;34.37;;;15.97;;
75261;SDS011;63859;51.064;4.580;2024-01-11T12:07:12;33.47;;;17.37;;
75261;SDS011;63859;51.064;4.580;2024-01-11T12:09:39;33.40;;;15.63;;
75261;SDS011;63859;51.064;4.580;2024-01-11T12:12:04;32.97;;;16.00;;
75261;SDS011;63859;51.064;4.580;2024-01-11T12:14:30;34.27;;;16.43;;
75261;SDS011;63859;51.064;4.580;2024-01-11T12:16:58;35.10;;;15.17;;
75261;SDS011;63859;51.064;4.580;2024-01-11T12:19:25;35.50;;;16.80;;
75261;SDS011;63859;51.064;4.580;2024-01-11T12:21:51;26.50;;;14.50;;
75261;SDS011;63859;51.064;4.580;2024-01-11T12:24:17;33.30;;;16.20;;
75261;SDS011;63859;51.064;4.580;2024-01-11T12:26:43;31.17;;;15.73;;
75261;SDS011;63859;51.064;4.580;2024-01-11T12:29:09;30.73;;;15.67;;
75261;SDS011;63859;51.064;4.580;2024-01-11T12:31:35;33.17;;;15.63;;
75261;SDS011;63859;51.064;4.580;2024-01-11T12:34:01;30.03;;;15.43;;
75261;SDS011;63859;51.064;4.580;2024-01-11T12:36:28;29.43;;;16.23;;
75261;SDS011;63859;51.064;4.580;2024-01-11T12:38:54;27.57;;;13.93;;
75261;SDS011;63859;51.064;4.580;2024-01-11T12:41:21;32.70;;;14.50;;
75261;SDS011;63859;51.064;4.580;2024-01-11T12:43:48;27.53;;;14.67;;
75261;SDS011;63859;51.064;4.580;2024-01-11T12:46:13;27.60;;;15.47;;
75261;SDS011;63859;51.064;4.580;2024-01-11T12:48:39;26.30;;;14.37;;
75261;SDS011;63859;51.064;4.580;2024-01-11T12:51:09;28.73;;;15.37;;
75261;SDS011;63859;51.064;4.580;2024-01-11T12:53:35;32.43;;;15.03;;
75261;SDS011;63859;51.064;4.580;2024-01-11T12:56:02;33.37;;;15.23;;
75261;SDS011;63859;51.064;4.580;2024-01-11T12:58:33;28.93;;;15.23;;
75261;SDS011;63859;51.064;4.580;2024-01-11T13:00:59;28.30;;;14.53;;
75261;SDS011;63859;51.064;4.580;2024-01-11T13:03:25;29.37;;;15.27;;
75261;SDS011;63859;51.064;4.580;2024-01-11T13:05:52;28.00;;;15.50;;
75261;SDS011;63859;51.064;4.580;2024-01-11T13:08:18;30.67;;;15.00;;
75261;SDS011;63859;51.064;4.580;2024-01-11T13:10:43;26.33;;;14.57;;
75261;SDS011;63859;51.064;4.580;2024-01-11T13:13:12;26.07;;;14.57;;
75261;SDS011;63859;51.064;4.580;2024-01-11T13:15:39;24.80;;;14.20;;
75261;SDS011;63859;51.064;4.580;2024-01-11T13:18:05;29.63;;;14.33;;
75261;SDS011;63859;51.064;4.580;2024-01-11T13:20:31;23.73;;;14.13;;
75261;SDS011;63859;51.064;4.580;2024-01-11T13:25:42;25.83;;;14.73;;
75261;SDS011;63859;51.064;4.580;2024-01-11T13:28:08;30.23;;;16.67;;
75261;SDS011;63859;51.064;4.580;2024-01-11T13:30:36;26.43;;;15.53;;
75261;SDS011;63859;51.064;4.580;2024-01-11T13:33:04;27.80;;;15.03;;
75261;SDS011;63859;51.064;4.580;2024-01-11T13:35:29;25.30;;;14.57;;
75261;SDS011;63859;51.064;4.580;2024-01-11T13:37:55;27.73;;;14.63;;
75261;SDS011;63859;51.064;4.580;2024-01-11T13:40:21;30.03;;;14.90;;
75261;SDS011;63859;51.064;4.580;2024-01-11T13:42:46;29.13;;;15.33;;
75261;SDS011;63859;51.064;4.580;2024-01-11T13:45:12;24.00;;;14.40;;
75261;SDS011;63859;51.064;4.580;2024-01-11T13:47:38;30.93;;;15.23;;
75261;SDS011;63859;51.064;4.580;2024-01-11T13:50:04;28.50;;;16.13;;
75261;SDS011;63859;51.064;4.580;2024-01-11T13:52:30;26.10;;;15.40;;
75261;SDS011;63859;51.064;4.580;2024-01-11T13:54:56;26.13;;;15.17;;
75261;SDS011;63859;51.064;4.580;2024-01-11T13:57:22;31.80;;;16.57;;
75261;SDS011;63859;51.064;4.580;2024-01-11T13:59:47;28.37;;;15.10;;
75261;SDS011;63859;51.064;4.580;2024-01-11T14:02:14;28.50;;;15.03;;
75261;SDS011;63859;51.064;4.580;2024-01-11T14:04:39;26.97;;;15.73;;
75261;SDS011;63859;51.064;4.580;2024-01-11T14:07:05;26.93;;;15.17;;
75261;SDS011;63859;51.064;4.580;2024-01-11T14:09:32;30.73;;;15.83;;
75261;SDS011;63859;51.064;4.580;2024-01-11T14:11:58;27.43;;;15.13;;
75261;SDS011;63859;51.064;4.580;2024-01-11T14:14:23;28.37;;;15.27;;
75261;SDS011;63859;51.064;4.580;2024-01-11T14:16:49;28.10;;;16.10;;
75261;SDS011;63859;51.064;4.580;2024-01-11T14:19:16;30.33;;;16.77;;